Time;durP1;ratioP1;P1;durP2;ratioP2;P2;SDS_P1;SDS_P2;PMS_P1;PMS_P2;Temp;Humidity;BMP_temperature;BMP_pressure;BME280_temperature;BME280_humidity;BME280_pressure;Samples;Min_cycle;Max_cycle;Signal;HPM_P1;HPM_P2
2023/10/11 00:00:48;;;;;;;;;;;;;;;;;;4991246;28;19921;-91
2023/10/11 00:03:17;;;;;;;;;;;;;;;;;;4994898;28;19927;-90
2023/10/11 00:05:43;;;;;;;;;;;;;;;;;;4982912;28;19918;-90
2023/10/11 00:08:09;;;;;;;;;;;;;;;;;;4989814;28;19928;-90
2023/10/11 00:10:42;;;;;;;;;;;;;;;;;;4986914;28;19913;-90
2023/10/11 00:13:09;;;;;;;;;;;;;;;;;;4985883;28;20117;-90
2023/10/11 00:15:36;;;;;;;;;;;;;;;;;;4986169;28;19922;-91
2023/10/11 00:18:02;;;;;;;;;;;;;;;;;;4989922;28;19999;-88
2023/10/11 00:21:15;;;;;;;;;;;;;;;;;;4990572;28;19917;-89
2023/10/11 00:23:14;;;;;;;;;;;;;;;;;;4986692;28;20036;-89
2023/10/11 00:25:40;;;;;;;;;;;;;;;;;;4991459;28;20004;-90
2023/10/11 00:28:08;;;;;;;;;;;;;;;;;;4984291;28;20518;-91
2023/10/11 00:30:35;;;;;;;;;;;;;;;;;;5002838;28;20377;-91
2023/10/11 00:33:03;;;;;;;;;;;;;;;;;;4991501;28;20321;-91
2023/10/11 00:35:32;;;;;;;;;;;;;;;;;;4965991;28;19933;-91
2023/10/11 00:38:00;;;;;;;;;;;;;;;;;;4962610;28;20551;-89
2023/10/11 00:40:28;;;;;;;;;;;;;;;;;;4979248;28;19956;-90
2023/10/11 00:42:54;;;;;;;;;;;;;;;;;;4964858;28;19918;-89
2023/10/11 00:45:23;;;;;;;;;;;;;;;;;;4975011;28;20338;-89
2023/10/11 00:47:51;;;;;;;;;;;;;;;;;;4967688;28;20020;-88
2023/10/11 00:50:17;;;;;;;;;;;;;;;;;;4965696;28;19914;-89
2023/10/11 00:52:43;;;;;;;;;;;;;;;;;;4964025;28;19918;-90
2023/10/11 00:55:15;;;;;;;;;;;;;;;;;;4966179;28;19953;-89
2023/10/11 00:57:42;;;;;;;;;;;;;;;;;;4961080;28;19919;-90
2023/10/11 01:00:13;;;;;;;;;;;;;;;;;;4974682;28;20016;-89
2023/10/11 01:02:38;;;;;;;;;;;;;;;;;;4967307;28;19914;-89
2023/10/11 01:05:06;;;;;;;;;;;;;;;;;;4982414;28;19920;-89
2023/10/11 01:07:32;;;;;;;;;;;;;;;;;;4966602;28;19922;-89
2023/10/11 01:10:04;;;;;;;;;;;;;;;;;;4968735;28;20468;-88
2023/10/11 01:12:33;;;;;;;;;;;;;;;;;;4985868;28;19965;-89
2023/10/11 01:14:59;;;;;;;;;;;;;;;;;;4968229;28;20012;-90
2023/10/11 01:17:26;;;;;;;;;;;;;;;;;;4968881;28;20334;-89
2023/10/11 01:19:52;;;;;;;;;;;;;;;;;;4967119;28;20520;-89
2023/10/11 01:22:18;;;;;;;;;;;;;;;;;;4967535;28;19948;-90
2023/10/11 01:24:47;;;;;;;;;;;;;;;;;;4969953;28;19914;-89
2023/10/11 01:27:13;;;;;;;;;;;;;;;;;;4970123;28;19918;-90
2023/10/11 01:29:39;;;;;;;;;;;;;;;;;;4979198;28;19922;-89
2023/10/11 01:32:06;;;;;;;;;;;;;;;;;;4968079;28;19922;-91
2023/10/11 01:34:32;;;;;;;;;;;;;;;;;;4992607;28;19921;-89
2023/10/11 01:36:58;;;;;;;;;;;;;;;;;;4983115;28;20007;-90
2023/10/11 01:39:24;;;;;;;;;;;;;;;;;;4985166;28;20016;-91
2023/10/11 01:41:54;;;;;;;;;;;;;;;;;;4985792;28;19920;-90
2023/10/11 01:44:22;;;;;;;;;;;;;;;;;;4987311;28;19917;-90
2023/10/11 01:46:52;;;;;;;;;;;;;;;;;;4987931;28;20395;-90
2023/10/11 01:49:18;;;;;;;;;;;;;;;;;;5001664;28;19918;-91
2023/10/11 01:51:48;;;;;;;;;;;;;;;;;;4989250;28;19913;-91
2023/10/11 01:54:19;;;;;;;;;;;;;;;;;;4989628;28;19917;-91
2023/10/11 01:56:45;;;;;;;;;;;;;;;;;;4983613;28;19914;-91
2023/10/11 01:59:15;;;;;;;;;;;;;;;;;;4985316;28;20586;-91
2023/10/11 02:01:43;;;;;;;;;;;;;;;;;;4984570;28;19918;-91
2023/10/11 02:04:10;;;;;;;;;;;;;;;;;;4983330;28;20370;-91
2023/10/11 02:06:38;;;;;;;;;;;;;;;;;;5001064;28;20012;-91
2023/10/11 02:09:04;;;;;;;;;;;;;;;;;;4989650;28;19964;-91
2023/10/11 02:11:30;;;;;;;;;;;;;;;;;;4988790;28;20366;-90
2023/10/11 02:13:57;;;;;;;;;;;;;;;;;;4988358;28;19953;-91
2023/10/11 02:16:23;;;;;;;;;;;;;;;;;;4989112;28;19940;-91
2023/10/11 02:18:58;;;;;;;;;;;;;;;;;;4984877;28;20220;-91
2023/10/11 02:21:24;;;;;;;;;;;;;;;;;;4987851;28;20004;-90
2023/10/11 02:23:50;;;;;;;;;;;;;;;;;;4988413;28;20005;-90
2023/10/11 02:26:16;;;;;;;;;;;;;;;;;;4987115;28;19913;-91
2023/10/11 02:28:45;;;;;;;;;;;;;;;;;;4999771;28;20417;-91
2023/10/11 02:31:14;;;;;;;;;;;;;;;;;;4986163;28;19922;-91
2023/10/11 02:33:39;;;;;;;;;;;;;;;;;;5003274;28;19976;-91
2023/10/11 02:36:09;;;;;;;;;;;;;;;;;;4984011;28;19921;-91
2023/10/11 02:38:40;;;;;;;;;;;;;;;;;;4988233;28;19920;-91
2023/10/11 02:41:07;;;;;;;;;;;;;;;;;;4987329;28;19921;-91
2023/10/11 02:43:33;;;;;;;;;;;;;;;;;;4984621;28;19967;-91
2023/10/11 02:46:11;;;;;;;;;;;;;;;;;;4984957;28;19918;-91
2023/10/11 02:48:37;;;;;;;;;;;;;;;;;;4992303;28;19956;-92
2023/10/11 02:51:15;;;;;;;;;;;;;;;;;;4992998;28;19925;-94
2023/10/11 02:53:43;;;;;;;;;;;;;;;;;;5001970;28;19921;-92
2023/10/11 02:56:09;;;;;;;;;;;;;;;;;;5003697;28;19917;-93
2023/10/11 02:58:39;;;;;;;;;;;;;;;;;;4986277;28;19921;-90
2023/10/11 03:01:10;;;;;;;;;;;;;;;;;;4985726;28;20430;-90
2023/10/11 03:03:38;;;;;;;;;;;;;;;;;;4973029;28;20162;-91
2023/10/11 03:06:07;;;;;;;;;;;;;;;;;;4977171;28;19964;-90
2023/10/11 03:08:33;;;;;;;;;;;;;;;;;;4988297;28;19933;-90
2023/10/11 03:11:04;;;;;;;;;;;;;;;;;;4983094;28;19914;-90
2023/10/11 03:13:30;;;;;;;;;;;;;;;;;;4986290;28;19921;-90
2023/10/11 03:15:56;;;;;;;;;;;;;;;;;;4988090;28;19917;-90
2023/10/11 03:18:22;;;;;;;;;;;;;;;;;;4985851;28;19913;-91
2023/10/11 03:20:50;;;;;;;;;;;;;;;;;;4984250;28;19921;-91
2023/10/11 03:23:20;;;;;;;;;;;;;;;;;;4982717;28;20008;-90
2023/10/11 03:25:49;;;;;;;;;;;;;;;;;;4989108;28;19913;-90
2023/10/11 03:28:15;;;;;;;;;;;;;;;;;;4990081;28;19925;-89
2023/10/11 03:30:42;;;;;;;;;;;;;;;;;;4992889;28;19920;-90
2023/10/11 03:33:08;;;;;;;;;;;;;;;;;;4990609;28;19922;-90
2023/10/11 03:35:38;;;;;;;;;;;;;;;;;;4991379;28;19929;-90
2023/10/11 03:38:06;;;;;;;;;;;;;;;;;;4990729;28;20029;-89
2023/10/11 03:40:35;;;;;;;;;;;;;;;;;;5002447;28;20381;-89
2023/10/11 03:43:01;;;;;;;;;;;;;;;;;;4990250;28;19961;-90
2023/10/11 03:45:27;;;;;;;;;;;;;;;;;;4998835;28;19913;-90
2023/10/11 03:47:53;;;;;;;;;;;;;;;;;;4987687;28;19929;-90
2023/10/11 03:50:47;;;;;;;;;;;;;;;;;;4988167;28;20016;-90
2023/10/11 03:53:10;;;;;;;;;;;;;;;;;;4998224;28;20274;-90
2023/10/11 03:55:45;;;;;;;;;;;;;;;;;;4991078;28;20017;-89
2023/10/11 03:58:12;;;;;;;;;;;;;;;;;;4988668;28;19918;-90
2023/10/11 04:00:47;;;;;;;;;;;;;;;;;;4986647;28;20548;-91
2023/10/11 04:03:17;;;;;;;;;;;;;;;;;;4987780;28;19972;-90
2023/10/11 04:05:47;;;;;;;;;;;;;;;;;;4989981;28;20261;-91
2023/10/11 04:08:19;;;;;;;;;;;;;;;;;;4992797;28;19925;-89
2023/10/11 04:10:49;;;;;;;;;;;;;;;;;;4988050;28;20008;-89
2023/10/11 04:13:15;;;;;;;;;;;;;;;;;;4989711;28;19914;-90
2023/10/11 04:15:41;;;;;;;;;;;;;;;;;;4986979;28;20450;-89
2023/10/11 04:18:15;;;;;;;;;;;;;;;;;;4986174;28;19917;-89
2023/10/11 04:20:51;;;;;;;;;;;;;;;;;;4991935;28;19917;-90
2023/10/11 04:23:16;;;;;;;;;;;;;;;;;;4984111;28;19921;-90
2023/10/11 04:25:44;;;;;;;;;;;;;;;;;;4986094;28;19917;-89
2023/10/11 04:28:13;;;;;;;;;;;;;;;;;;4993722;28;19921;-90
2023/10/11 04:30:44;;;;;;;;;;;;;;;;;;4998949;28;19921;-89
2023/10/11 04:33:12;;;;;;;;;;;;;;;;;;5005917;28;19921;-90
2023/10/11 04:35:42;;;;;;;;;;;;;;;;;;4969947;28;19997;-90
2023/10/11 04:38:10;;;;;;;;;;;;;;;;;;4971382;28;19925;-89
2023/10/11 04:40:51;;;;;;;;;;;;;;;;;;4967369;28;19918;-89
2023/10/11 04:43:20;;;;;;;;;;;;;;;;;;4971071;28;19941;-90
2023/10/11 04:45:46;;;;;;;;;;;;;;;;;;4968831;28;19933;-90
2023/10/11 04:48:15;;;;;;;;;;;;;;;;;;4980751;28;19922;-90
2023/10/11 04:50:48;;;;;;;;;;;;;;;;;;4968299;28;19914;-90
2023/10/11 04:53:18;;;;;;;;;;;;;;;;;;4983520;28;19914;-90
2023/10/11 04:55:46;;;;;;;;;;;;;;;;;;4966200;28;20064;-89
2023/10/11 04:58:38;;;;;;;;;;;;;;;;;;4969668;28;19968;-90
2023/10/11 05:01:02;;;;;;;;;;;;;;;;;;4985934;28;19918;-90
2023/10/11 05:03:30;;;;;;;;;;;;;;;;;;4967846;28;19921;-90
2023/10/11 05:05:59;;;;;;;;;;;;;;;;;;4969945;28;20354;-89
2023/10/11 05:08:50;;;;;;;;;;;;;;;;;;4971336;28;19925;-89
2023/10/11 05:11:19;;;;;;;;;;;;;;;;;;4983549;28;20162;-89
2023/10/11 05:13:59;;;;;;;;;;;;;;;;;;4968454;28;20678;-90
2023/10/11 05:16:25;;;;;;;;;;;;;;;;;;4969893;28;19921;-90
2023/10/11 05:18:51;;;;;;;;;;;;;;;;;;4970543;28;19928;-93
2023/10/11 05:21:26;;;;;;;;;;;;;;;;;;4970789;28;19922;-92
2023/10/11 05:24:04;;;;;;;;;;;;;;;;;;4969276;28;19926;-93
2023/10/11 05:27:03;;;;;;;;;;;;;;;;;;4972810;28;20378;-93
2023/10/11 05:29:31;;;;;;;;;;;;;;;;;;4981806;28;19933;-93
2023/10/11 05:32:20;;;;;;;;;;;;;;;;;;4968919;28;19918;-93
2023/10/11 05:34:50;;;;;;;;;;;;;;;;;;4967316;28;19930;-94
2023/10/11 05:51:03;;;;;;;;;;;;;;;;;;4979038;28;19972;-92
2023/10/11 05:53:29;;;;;;;;;;;;;;;;;;4970088;28;19921;-93
2023/10/11 05:55:56;;;;;;;;;;;;;;;;;;4959112;28;19929;-93
2023/10/11 05:58:22;;;;;;;;;;;;;;;;;;4965789;28;20384;-94
2023/10/11 06:00:49;;;;;;;;;;;;;;;;;;4967527;28;20016;-92
2023/10/11 06:03:15;;;;;;;;;;;;;;;;;;4980792;28;19928;-92
2023/10/11 06:05:41;;;;;;;;;;;;;;;;;;4969339;28;20358;-91
2023/10/11 06:08:15;;;;;;;;;;;;;;;;;;4971075;28;19922;-91
2023/10/11 06:10:44;;;;;;;;;;;;;;;;;;4965616;28;20276;-93
2023/10/11 06:13:13;;;;;;;;;;;;;;;;;;4968689;28;19980;-90
2023/10/11 06:15:41;;;;;;;;;;;;;;;;;;4968017;28;20013;-92
2023/10/11 06:18:09;;;;;;;;;;;;;;;;;;4966469;28;19972;-89
2023/10/11 06:20:39;;;;;;;;;;;;;;;;;;4963844;28;20375;-89
2023/10/11 06:23:06;;;;;;;;;;;;;;;;;;4967545;28;20051;-90
2023/10/11 06:25:50;;;;;;;;;;;;;;;;;;4969788;28;19913;-89
2023/10/11 06:28:17;;;;;;;;;;;;;;;;;;4964322;28;19972;-90
2023/10/11 06:30:46;;;;;;;;;;;;;;;;;;4966884;28;20386;-89
2023/10/11 06:33:13;;;;;;;;;;;;;;;;;;4964588;28;19924;-89
2023/10/11 06:35:49;;;;;;;;;;;;;;;;;;4981406;28;19926;-90
2023/10/11 06:38:15;;;;;;;;;;;;;;;;;;4982003;28;19913;-90
2023/10/11 06:40:47;;;;;;;;;;;;;;;;;;5001633;28;19924;-89
2023/10/11 06:43:13;;;;;;;;;;;;;;;;;;4984579;28;19913;-89
2023/10/11 06:45:42;;;;;;;;;;;;;;;;;;4983966;28;20436;-90
2023/10/11 06:48:08;;;;;;;;;;;;;;;;;;5000870;28;20371;-89
2023/10/11 06:50:37;;;;;;;;;;;;;;;;;;4992437;28;19921;-89
2023/10/11 06:53:07;;;;;;;;;;;;;;;;;;4984403;28;20388;-89
2023/10/11 06:55:33;;;;;;;;;;;;;;;;;;5002085;28;19921;-89
2023/10/11 06:58:03;;;;;;;;;;;;;;;;;;4984525;28;20330;-89
2023/10/11 07:00:29;;;;;;;;;;;;;;;;;;4986783;28;19920;-90
2023/10/11 07:02:55;;;;;;;;;;;;;;;;;;4988175;28;20025;-89
2023/10/11 07:05:21;;;;;;;;;;;;;;;;;;4985060;28;20008;-89
2023/10/11 07:07:47;;;;;;;;;;;;;;;;;;4985714;28;19924;-89
2023/10/11 07:10:28;;;;;;;;;;;;;;;;;;4988105;28;20339;-90
2023/10/11 07:13:03;;;;;;;;;;;;;;;;;;4999821;28;19917;-90
2023/10/11 07:15:31;;;;;;;;;;;;;;;;;;4983362;28;19924;-89
2023/10/11 07:17:57;;;;;;;;;;;;;;;;;;4988242;28;19917;-90
2023/10/11 07:23:09;;;;;;;;;;;;;;;;;;5001371;28;19972;-89
2023/10/11 07:25:38;;;;;;;;;;;;;;;;;;4981905;28;20467;-89
2023/10/11 07:28:05;;;;;;;;;;;;;;;;;;4982132;28;19926;-89
2023/10/11 07:30:37;;;;;;;;;;;;;;;;;;4984816;28;20288;-89
2023/10/11 07:33:04;;;;;;;;;;;;;;;;;;4986531;28;19918;-89
2023/10/11 07:35:30;;;;;;;;;;;;;;;;;;4983007;28;20281;-88
2023/10/11 07:37:56;;;;;;;;;;;;;;;;;;4982766;28;19968;-89
2023/10/11 07:40:33;;;;;;;;;;;;;;;;;;4984060;28;19929;-89
2023/10/11 07:42:59;;;;;;;;;;;;;;;;;;4988618;28;19923;-89
2023/10/11 07:45:26;;;;;;;;;;;;;;;;;;4988109;28;19913;-89
2023/10/11 07:47:52;;;;;;;;;;;;;;;;;;4983793;28;19921;-90
2023/10/11 07:50:22;;;;;;;;;;;;;;;;;;4986954;28;19927;-90
2023/10/11 07:52:48;;;;;;;;;;;;;;;;;;4997468;28;19993;-89
2023/10/11 07:55:14;;;;;;;;;;;;;;;;;;4987123;28;20040;-89
2023/10/11 07:57:44;;;;;;;;;;;;;;;;;;4986011;28;19925;-90
2023/10/11 08:00:17;;;;;;;;;;;;;;;;;;4997077;28;19917;-89
2023/10/11 08:02:43;;;;;;;;;;;;;;;;;;4986654;28;19914;-90
2023/10/11 08:05:15;;;;;;;;;;;;;;;;;;4986134;28;19918;-89
2023/10/11 08:07:41;;;;;;;;;;;;;;;;;;4987262;28;19955;-89
2023/10/11 08:13:23;;;;;;;;;;;;;;;;;;4946899;28;19997;-90
2023/10/11 08:15:51;;;;;;;;;;;;;;;;;;4964969;28;20473;-90
2023/10/11 08:18:17;;;;;;;;;;;;;;;;;;4985151;28;19917;-89
2023/10/11 08:20:43;;;;;;;;;;;;;;;;;;4989314;28;19971;-90
2023/10/11 08:23:09;;;;;;;;;;;;;;;;;;4990002;28;19918;-89
2023/10/11 08:25:39;;;;;;;;;;;;;;;;;;4999497;28;19917;-90
2023/10/11 08:28:48;;;;;;;;;;;;;;;;;;4989088;28;19921;-89
2023/10/11 08:30:57;;;;;;;;;;;;;;;;;;4992180;28;19932;-89
2023/10/11 08:33:23;;;;;;;;;;;;;;;;;;4990069;28;20328;-90
2023/10/11 08:35:53;;;;;;;;;;;;;;;;;;4988477;28;19925;-90
2023/10/11 08:38:18;;;;;;;;;;;;;;;;;;5000036;28;19922;-92
2023/10/11 08:40:47;;;;;;;;;;;;;;;;;;5002593;28;19913;-92
2023/10/11 08:43:13;;;;;;;;;;;;;;;;;;4989377;28;20392;-92
2023/10/11 08:45:39;;;;;;;;;;;;;;;;;;4986831;28;19917;-93
2023/10/11 08:48:06;;;;;;;;;;;;;;;;;;4983313;28;20333;-92
2023/10/11 08:50:34;;;;;;;;;;;;;;;;;;4991434;28;20410;-93
2023/10/11 08:53:01;;;;;;;;;;;;;;;;;;4989153;28;19919;-92
2023/10/11 08:55:27;;;;;;;;;;;;;;;;;;4991893;28;19918;-92
2023/10/11 08:57:53;;;;;;;;;;;;;;;;;;4984151;28;19921;-91
2023/10/11 09:00:29;;;;;;;;;;;;;;;;;;4989134;28;19963;-93
2023/10/11 09:02:55;;;;;;;;;;;;;;;;;;4989429;28;20394;-93
2023/10/11 09:05:32;;;;;;;;;;;;;;;;;;5001980;28;19924;-93
2023/10/11 09:08:02;;;;;;;;;;;;;;;;;;4987723;28;19918;-91
2023/10/11 09:10:28;;;;;;;;;;;;;;;;;;5003713;28;19941;-92
2023/10/11 09:12:56;;;;;;;;;;;;;;;;;;4989492;28;20057;-91
2023/10/11 09:15:22;;;;;;;;;;;;;;;;;;5000686;28;20523;-91
2023/10/11 09:17:50;;;;;;;;;;;;;;;;;;4991075;28;19925;-91
2023/10/11 09:20:23;;;;;;;;;;;;;;;;;;4987496;28;19928;-93
2023/10/11 09:22:52;;;;;;;;;;;;;;;;;;4990932;28;19971;-92
2023/10/11 09:25:22;;;;;;;;;;;;;;;;;;4988731;28;20548;-92
2023/10/11 09:27:51;;;;;;;;;;;;;;;;;;4987450;28;19914;-92
2023/10/11 09:30:20;;;;;;;;;;;;;;;;;;4986665;28;19963;-92
2023/10/11 09:32:48;;;;;;;;;;;;;;;;;;4989693;28;20022;-93
2023/10/11 09:35:16;;;;;;;;;;;;;;;;;;4989136;28;19917;-92
2023/10/11 09:37:46;;;;;;;;;;;;;;;;;;4983618;28;19971;-92
2023/10/11 09:40:16;;;;;;;;;;;;;;;;;;4998357;28;20382;-92
2023/10/11 09:42:43;;;;;;;;;;;;;;;;;;4988331;28;19972;-93
2023/10/11 09:45:09;;;;;;;;;;;;;;;;;;4988511;28;19913;-93
2023/10/11 09:47:41;;;;;;;;;;;;;;;;;;5000507;28;19925;-89
2023/10/11 09:50:13;;;;;;;;;;;;;;;;;;4984047;28;19922;-89
2023/10/11 09:52:45;;;;;;;;;;;;;;;;;;4982958;28;19985;-89
2023/10/11 09:55:17;;;;;;;;;;;;;;;;;;4996438;28;19967;-88
2023/10/11 09:57:50;;;;;;;;;;;;;;;;;;4984935;28;20416;-92
2023/10/11 10:00:17;;;;;;;;;;;;;;;;;;4987288;28;20389;-92
2023/10/11 10:02:44;;;;;;;;;;;;;;;;;;4999046;28;20415;-91
2023/10/11 10:05:10;;;;;;;;;;;;;;;;;;4987210;28;19920;-93
2023/10/11 10:10:06;;;;;;;;;;;;;;;;;;5002314;28;19929;-90
2023/10/11 10:12:32;;;;;;;;;;;;;;;;;;4982748;28;19922;-93
2023/10/11 10:14:58;;;;;;;;;;;;;;;;;;4983631;28;19913;-91
2023/10/11 10:17:24;;;;;;;;;;;;;;;;;;4983905;28;20150;-91
2023/10/11 10:19:50;;;;;;;;;;;;;;;;;;4997750;28;19918;-93
2023/10/11 10:22:27;;;;;;;;;;;;;;;;;;4986102;28;19913;-91
2023/10/11 10:24:56;;;;;;;;;;;;;;;;;;4983812;28;19913;-92
2023/10/11 10:27:22;;;;;;;;;;;;;;;;;;4995934;28;20029;-91
2023/10/11 10:29:48;;;;;;;;;;;;;;;;;;4984172;28;20012;-92
2023/10/11 10:32:16;;;;;;;;;;;;;;;;;;4996795;28;19963;-90
2023/10/11 10:34:43;;;;;;;;;;;;;;;;;;4997922;28;19973;-91
2023/10/11 10:37:09;;;;;;;;;;;;;;;;;;4982798;28;20338;-93
2023/10/11 10:39:47;;;;;;;;;;;;;;;;;;4983463;28;20289;-92
2023/10/11 10:42:15;;;;;;;;;;;;;;;;;;4980153;28;20393;-92
2023/10/11 10:44:41;;;;;;;;;;;;;;;;;;4996148;28;19960;-92
2023/10/11 10:47:08;;;;;;;;;;;;;;;;;;4985663;28;19969;-92
2023/10/11 10:49:34;;;;;;;;;;;;;;;;;;4989069;28;20016;-91
2023/10/11 10:52:00;;;;;;;;;;;;;;;;;;4994135;28;20000;-91
2023/10/11 10:54:32;;;;;;;;;;;;;;;;;;4987690;28;19921;-92
2023/10/11 10:56:58;;;;;;;;;;;;;;;;;;4981533;28;19924;-93
2023/10/11 10:59:26;;;;;;;;;;;;;;;;;;4985762;28;20108;-93
2023/10/11 11:01:55;;;;;;;;;;;;;;;;;;4998330;28;20414;-93
2023/10/11 11:04:22;;;;;;;;;;;;;;;;;;4987464;28;19945;-92
2023/10/11 11:06:48;;;;;;;;;;;;;;;;;;4983659;28;20008;-92
2023/10/11 11:09:18;;;;;;;;;;;;;;;;;;4983561;28;20020;-90
2023/10/11 11:11:44;;;;;;;;;;;;;;;;;;4989385;28;19957;-90
2023/10/11 11:14:10;;;;;;;;;;;;;;;;;;4981850;28;19964;-90
2023/10/11 11:16:39;;;;;;;;;;;;;;;;;;4986708;28;19949;-91
2023/10/11 11:19:08;;;;;;;;;;;;;;;;;;4997694;28;20570;-91
2023/10/11 11:21:44;;;;;;;;;;;;;;;;;;4991531;28;20408;-90
2023/10/11 11:24:14;;;;;;;;;;;;;;;;;;5035082;23;19934;-90
2023/10/11 11:26:40;;;;;;;;;;;;;;;;;;4965493;28;20010;-90
2023/10/11 11:29:10;;;;;;;;;;;;;;;;;;4983955;28;19925;-90
2023/10/11 11:31:38;;;;;;;;;;;;;;;;;;4974862;28;19921;-90
2023/10/11 11:34:07;;;;;;;;;;;;;;;;;;4976134;28;20589;-90
2023/10/11 11:36:35;;;;;;;;;;;;;;;;;;4970074;28;19918;-90
2023/10/11 11:41:45;;;;;;;;;;;;;;;;;;4978830;28;19929;-90
2023/10/11 11:44:19;;;;;;;;;;;;;;;;;;4982265;28;20655;-90
2023/10/11 11:46:48;;;;;;;;;;;;;;;;;;4971818;28;19957;-90
2023/10/11 11:49:15;;;;;;;;;;;;;;;;;;4971057;28;19941;-90
2023/10/11 11:51:41;;;;;;;;;;;;;;;;;;4982859;28;19918;-90
2023/10/11 11:54:09;;;;;;;;;;;;;;;;;;4965705;28;20481;-90
2023/10/11 11:56:35;;;;;;;;;;;;;;;;;;4970150;28;19963;-89
2023/10/11 11:59:01;;;;;;;;;;;;;;;;;;4971293;28;20320;-89
2023/10/11 12:01:27;;;;;;;;;;;;;;;;;;4985643;28;19914;-88
2023/10/11 12:03:54;;;;;;;;;;;;;;;;;;4974141;28;20226;-89
2023/10/11 12:06:23;;;;;;;;;;;;;;;;;;4973697;28;19922;-89
2023/10/11 12:08:49;;;;;;;;;;;;;;;;;;4987266;28;19922;-89
2023/10/11 12:11:15;;;;;;;;;;;;;;;;;;4982932;28;20503;-90
2023/10/11 12:13:41;;;;;;;;;;;;;;;;;;4986864;28;19925;-89
2023/10/11 12:16:09;;;;;;;;;;;;;;;;;;4971130;28;19917;-89
2023/10/11 12:18:35;;;;;;;;;;;;;;;;;;4970965;28;19918;-92
2023/10/11 12:21:03;;;;;;;;;;;;;;;;;;4971285;28;19976;-92
2023/10/11 12:23:29;;;;;;;;;;;;;;;;;;4967834;28;20290;-93
2023/10/11 12:25:56;;;;;;;;;;;;;;;;;;4972516;28;19922;-92
2023/10/11 12:28:25;;;;;;;;;;;;;;;;;;4980334;28;20256;-91
2023/10/11 12:30:53;;;;;;;;;;;;;;;;;;4984216;28;19921;-93
2023/10/11 12:33:19;;;;;;;;;;;;;;;;;;4968740;28;19918;-92
2023/10/11 12:35:45;;;;;;;;;;;;;;;;;;4969473;28;19920;-92
2023/10/11 12:38:12;;;;;;;;;;;;;;;;;;4971342;28;19924;-92
2023/10/11 12:40:38;;;;;;;;;;;;;;;;;;4964067;28;20528;-91
2023/10/11 12:43:07;;;;;;;;;;;;;;;;;;4971506;28;20370;-92
2023/10/11 12:45:33;;;;;;;;;;;;;;;;;;4966718;28;20005;-91
2023/10/11 12:48:02;;;;;;;;;;;;;;;;;;4987029;28;20012;-93
2023/10/11 12:50:28;;;;;;;;;;;;;;;;;;4966582;28;19964;-93
2023/10/11 12:52:54;;;;;;;;;;;;;;;;;;4981192;28;19977;-93
2023/10/11 12:55:20;;;;;;;;;;;;;;;;;;4967353;28;19922;-91
2023/10/11 12:57:46;;;;;;;;;;;;;;;;;;4985376;28;19922;-92
2023/10/11 13:00:59;;;;;;;;;;;;;;;;;;4972280;28;19941;-92
2023/10/11 13:05:46;;;;;;;;;;;;;;;;;;4986921;28;20093;-94
2023/10/11 13:08:12;;;;;;;;;;;;;;;;;;4970236;28;19961;-94
2023/10/11 13:10:45;;;;;;;;;;;;;;;;;;4969449;28;20544;-94
2023/10/11 13:13:11;;;;;;;;;;;;;;;;;;4986348;28;19918;-93
2023/10/11 13:15:39;;;;;;;;;;;;;;;;;;4971862;28;19939;-94
2023/10/11 13:18:09;;;;;;;;;;;;;;;;;;4977695;28;19918;-93
2023/10/11 13:20:35;;;;;;;;;;;;;;;;;;4977606;28;19924;-93
2023/10/11 13:23:01;;;;;;;;;;;;;;;;;;4982415;28;19918;-92
2023/10/11 13:25:27;;;;;;;;;;;;;;;;;;4967532;28;19930;-93
2023/10/11 13:27:54;;;;;;;;;;;;;;;;;;4947585;28;19960;-92
2023/10/11 13:30:22;;;;;;;;;;;;;;;;;;4942682;28;19922;-93
2023/10/11 13:32:48;;;;;;;;;;;;;;;;;;4944824;28;19922;-94
2023/10/11 13:35:14;;;;;;;;;;;;;;;;;;4949521;28;19914;-92
2023/10/11 13:37:46;;;;;;;;;;;;;;;;;;4949992;28;21945;-95
2023/10/11 13:40:12;;;;;;;;;;;;;;;;;;4955994;28;19958;-93
2023/10/11 13:42:38;;;;;;;;;;;;;;;;;;4955081;28;20127;-92
2023/10/11 13:45:03;;;;;;;;;;;;;;;;;;4962501;28;19915;-93
2023/10/11 13:47:36;;;;;;;;;;;;;;;;;;4946798;28;19985;-94
2023/10/11 13:50:08;;;;;;;;;;;;;;;;;;4952508;28;19918;-94
2023/10/11 13:52:36;;;;;;;;;;;;;;;;;;4946210;28;20016;-94
2023/10/11 13:55:08;;;;;;;;;;;;;;;;;;4954214;28;19924;-94
2023/10/11 13:57:37;;;;;;;;;;;;;;;;;;4944688;28;19972;-92
2023/10/11 14:00:41;;;;;;;;;;;;;;;;;;4948524;28;19918;-92
2023/10/11 14:03:10;;;;;;;;;;;;;;;;;;4966041;28;19956;-93
2023/10/11 14:05:42;;;;;;;;;;;;;;;;;;4964605;28;19922;-93
2023/10/11 14:08:24;;;;;;;;;;;;;;;;;;4945440;28;19914;-93
2023/10/11 14:10:50;;;;;;;;;;;;;;;;;;4944372;28;19926;-94
2023/10/11 14:13:21;;;;;;;;;;;;;;;;;;4945952;28;19918;-93
2023/10/11 14:15:47;;;;;;;;;;;;;;;;;;4947155;28;19926;-92
2023/10/11 14:18:15;;;;;;;;;;;;;;;;;;4942910;28;19921;-93
2023/10/11 14:20:47;;;;;;;;;;;;;;;;;;4964744;28;19964;-94
2023/10/11 14:23:15;;;;;;;;;;;;;;;;;;4963750;28;20367;-94
2023/10/11 14:25:41;;;;;;;;;;;;;;;;;;4961749;28;19926;-94
2023/10/11 14:28:07;;;;;;;;;;;;;;;;;;4945883;28;19968;-93
2023/10/11 14:30:33;;;;;;;;;;;;;;;;;;4948408;28;19914;-94
2023/10/11 14:32:59;;;;;;;;;;;;;;;;;;4962309;28;20013;-94
2023/10/11 14:35:26;;;;;;;;;;;;;;;;;;4944712;28;19922;-94
2023/10/11 14:37:52;;;;;;;;;;;;;;;;;;4945794;28;20307;-92
2023/10/11 14:40:21;;;;;;;;;;;;;;;;;;4945903;28;20470;-93
2023/10/11 14:42:46;;;;;;;;;;;;;;;;;;4964700;28;19961;-94
2023/10/11 14:45:12;;;;;;;;;;;;;;;;;;4943932;28;19945;-94
2023/10/11 14:47:38;;;;;;;;;;;;;;;;;;4947259;28;19918;-91
2023/10/11 14:50:10;;;;;;;;;;;;;;;;;;4961567;28;19999;-91
2023/10/11 14:52:39;;;;;;;;;;;;;;;;;;4940896;28;19942;-92
2023/10/11 14:55:04;;;;;;;;;;;;;;;;;;4946981;28;19993;-91
2023/10/11 14:57:30;;;;;;;;;;;;;;;;;;4944220;28;19993;-92
2023/10/11 14:59:56;;;;;;;;;;;;;;;;;;4959849;28;19930;-92
2023/10/11 15:02:22;;;;;;;;;;;;;;;;;;4946344;28;19918;-92
2023/10/11 15:04:48;;;;;;;;;;;;;;;;;;4963820;28;19996;-92
2023/10/11 15:07:18;;;;;;;;;;;;;;;;;;4951657;28;19914;-92
2023/10/11 15:09:44;;;;;;;;;;;;;;;;;;4953362;28;19928;-92
2023/10/11 15:12:18;;;;;;;;;;;;;;;;;;4965816;28;20004;-92
2023/10/11 15:23:15;;;;;;;;;;;;;;;;;;4925357;28;20151;-92
2023/10/11 15:25:41;;;;;;;;;;;;;;;;;;4972324;28;19926;-92
2023/10/11 15:28:09;;;;;;;;;;;;;;;;;;4955907;28;19918;-93
2023/10/11 15:30:40;;;;;;;;;;;;;;;;;;4948069;28;19949;-92
2023/10/11 15:33:06;;;;;;;;;;;;;;;;;;4956221;28;19918;-92
2023/10/11 15:35:33;;;;;;;;;;;;;;;;;;4947615;28;19949;-92
2023/10/11 15:38:00;;;;;;;;;;;;;;;;;;4948103;28;19926;-92
2023/10/11 15:40:26;;;;;;;;;;;;;;;;;;4968679;28;20000;-91
2023/10/11 15:42:57;;;;;;;;;;;;;;;;;;4952049;28;19973;-91
2023/10/11 15:45:23;;;;;;;;;;;;;;;;;;4953519;28;20037;-92
2023/10/11 15:47:49;;;;;;;;;;;;;;;;;;4954508;28;19972;-90
2023/10/11 15:50:22;;;;;;;;;;;;;;;;;;4947089;28;19954;-91
2023/10/11 15:52:51;;;;;;;;;;;;;;;;;;4944227;28;19929;-91
2023/10/11 15:55:22;;;;;;;;;;;;;;;;;;4949223;28;19915;-91
2023/10/11 15:57:48;;;;;;;;;;;;;;;;;;4951814;28;19937;-90
2023/10/11 16:00:14;;;;;;;;;;;;;;;;;;4961727;28;20374;-91
2023/10/11 16:02:44;;;;;;;;;;;;;;;;;;4948413;28;20432;-90
2023/10/11 16:05:10;;;;;;;;;;;;;;;;;;4944912;28;19921;-91
2023/10/11 16:07:38;;;;;;;;;;;;;;;;;;4949948;28;20290;-91
2023/10/11 16:10:04;;;;;;;;;;;;;;;;;;4943709;28;20582;-90
2023/10/11 16:12:30;;;;;;;;;;;;;;;;;;4949130;28;19918;-90
2023/10/11 16:14:56;;;;;;;;;;;;;;;;;;4942870;28;19918;-92
2023/10/11 16:17:22;;;;;;;;;;;;;;;;;;4940561;28;19914;-90
2023/10/11 16:19:48;;;;;;;;;;;;;;;;;;4961172;28;19918;-89
2023/10/11 16:22:14;;;;;;;;;;;;;;;;;;4941706;28;19915;-91
2023/10/11 16:24:42;;;;;;;;;;;;;;;;;;4970166;28;19918;-93
2023/10/11 16:27:13;;;;;;;;;;;;;;;;;;4966444;28;19937;-90
2023/10/11 16:29:39;;;;;;;;;;;;;;;;;;4965065;28;20027;-89
2023/10/11 16:32:08;;;;;;;;;;;;;;;;;;4967942;28;19953;-90
2023/10/11 16:34:34;;;;;;;;;;;;;;;;;;4988580;28;20245;-90
2023/10/11 16:37:00;;;;;;;;;;;;;;;;;;4968676;28;19914;-90
2023/10/11 16:39:27;;;;;;;;;;;;;;;;;;4970020;28;19910;-90
2023/10/11 16:41:52;;;;;;;;;;;;;;;;;;4964799;28;19914;-90
2023/10/11 16:44:18;;;;;;;;;;;;;;;;;;4971312;28;20417;-92
2023/10/11 16:46:46;;;;;;;;;;;;;;;;;;4983857;28;19954;-90
2023/10/11 16:49:11;;;;;;;;;;;;;;;;;;4967265;28;20002;-90
2023/10/11 16:51:38;;;;;;;;;;;;;;;;;;4984289;28;19917;-91
2023/10/11 16:54:06;;;;;;;;;;;;;;;;;;4964005;28;19917;-90
2023/10/11 16:56:35;;;;;;;;;;;;;;;;;;4970020;28;19924;-89
2023/10/11 16:59:01;;;;;;;;;;;;;;;;;;4971744;28;20425;-92
2023/10/11 17:01:27;;;;;;;;;;;;;;;;;;4980089;28;19945;-92
2023/10/11 17:03:53;;;;;;;;;;;;;;;;;;4984987;28;19956;-91
2023/10/11 17:06:19;;;;;;;;;;;;;;;;;;4973377;28;19936;-92
2023/10/11 17:08:45;;;;;;;;;;;;;;;;;;4969901;28;19918;-90
2023/10/11 17:11:23;;;;;;;;;;;;;;;;;;4972610;28;20001;-90
2023/10/11 17:13:49;;;;;;;;;;;;;;;;;;4967813;28;19999;-89
2023/10/11 17:16:16;;;;;;;;;;;;;;;;;;4963704;28;19953;-91
2023/10/11 17:18:46;;;;;;;;;;;;;;;;;;4981069;28;19917;-95
2023/10/11 17:21:13;;;;;;;;;;;;;;;;;;4969836;28;19924;-93
2023/10/11 17:23:40;;;;;;;;;;;;;;;;;;4973508;28;19914;-93
2023/10/11 17:26:08;;;;;;;;;;;;;;;;;;4971796;28;20506;-93
2023/10/11 17:28:37;;;;;;;;;;;;;;;;;;4973596;28;19929;-95
2023/10/11 17:31:03;;;;;;;;;;;;;;;;;;4970511;28;20283;-93